Avalon Express — WDD7919 — position and weather

sailwx.info

Track history (hours):
 
Tides and Currents Weather Stations Pressure Air Temp Water Temp Dewpoint Dewpoint Depression Visibility Wind Speed Wind Dir Waves Ship Positions

Avalon Express

Owner: RGWT INC, San Pedro, CA. More information available from US FCC via Universal Licensing System and Coast Guard Vessel Documentation Center.

Last reported at 2014-Nov-20 02:32 UTC. Time now 2014-Nov-21 10:42 UTC.
Position N 33°45' W 118°16'.

Type: High speed craft. MMSI: 367192940.

Date/timePositionNaut miles runAvg speedWind from/ knotsBaromVisibWave heightAir tempDewpointWater temp
2014-Nov-20 02:32N 33°45' W 118°16'1918.2
2014-Nov-20 01:31N 33°26' W 118°18'9 7.9
2014-Nov-20 00:25N 33°27' W 118°28'1113.0
2014-Nov-19 23:34N 33°36' W 118°21'10 9.5
2014-Nov-19 22:33N 33°45' W 118°16'0 0.0
2014-Nov-19 21:33N 33°45' W 118°16'1 0.9
2014-Nov-19 20:33N 33°44' W 118°16'2311.3
2014-Nov-19 18:29N 33°21' W 118°19'1717.9
2014-Nov-19 17:34N 33°37' W 118°16'8 7.9
2014-Nov-19 16:33N 33°45' W 118°16'0 0.0
2014-Nov-19 15:33N 33°45' W 118°16'0 0.0
2014-Nov-19 14:25N 33°45' W 118°16'0 0.0
2014-Nov-19 13:33N 33°45' W 118°16'  
2014-Nov-17 01:16N 33°40' W 118°15'4 2.3
2014-Nov-16 23:30N 33°37' W 118°19'4 1.2
2014-Nov-16 20:29N 33°34' W 118°17'13 6.9
2014-Nov-16 18:33N 33°21' W 118°19'2416.2
2014-Nov-16 17:05N 33°45' W 118°17'0 0.7
2014-Nov-16 16:33N 33°45' W 118°16'0 0.0
2014-Nov-15 05:27N 33°45' W 118°16'0 0.0
2014-Nov-15 04:24N 33°45' W 118°16'2411.9
2014-Nov-15 02:22N 33°21' W 118°19'2312.2
2014-Nov-15 00:31N 33°44' W 118°16'1 1.3
2014-Nov-14 23:33N 33°45' W 118°16'0 0.0
2014-Nov-14 22:33N 33°45' W 118°16'0 0.0
2014-Nov-14 21:33N 33°45' W 118°16'24 7.9
2014-Nov-14 18:33N 33°21' W 118°19'2217.7
2014-Nov-14 17:19N 33°43' W 118°15'2 3.3
2014-Nov-14 16:33N 33°45' W 118°16'0 0.0
2014-Nov-14 15:30N 33°45' W 118°16'0 0.0
2014-Nov-14 14:33N 33°45' W 118°16'0 0.0
2014-Nov-13 03:33N 33°45' W 118°16'0 0.0
2014-Nov-13 02:33N 33°45' W 118°16'2 0.5
2014-Nov-12 23:09N 33°43' W 118°16'2 3.0
2014-Nov-12 22:33N 33°45' W 118°16'0 0.0
2014-Nov-12 21:33N 33°45' W 118°16'24 7.0
2014-Nov-12 18:07N 33°21' W 118°19'2323.5
2014-Nov-12 17:09N 33°44' W 118°16'1 2.0
2014-Nov-12 16:33N 33°45' W 118°16'0 0.0
2014-Nov-12 15:33N 33°45' W 118°16'0 0.0
2014-Nov-12 14:33N 33°45' W 118°16'0 0.0
2014-Nov-12 13:34N 33°45' W 118°16'0 0.0
2014-Nov-11 03:24N 33°45' W 118°16'0 0.0
2014-Nov-11 02:33N 33°45' W 118°16'0 0.0
2014-Nov-10 22:33N 33°45' W 118°16'0 0.0
2014-Nov-10 21:33N 33°45' W 118°16'0 0.3
2014-Nov-10 20:32N 33°45' W 118°17'2410.1
2014-Nov-10 18:11N 33°21' W 118°19'2414.9
2014-Nov-10 16:34N 33°45' W 118°16'  
Track history (hours):
 
Tides and Currents Weather Stations Pressure Air Temp Water Temp Dewpoint Dewpoint Depression Visibility Wind Speed Wind Dir Waves Ship Positions

Avalon Express

Owner: RGWT INC, San Pedro, CA. More information available from US FCC via Universal Licensing System and Coast Guard Vessel Documentation Center.

Last reported at 2014-Nov-20 02:32 UTC. Time now 2014-Nov-21 10:42 UTC.
Position N 33°45' W 118°16'.

Type: High speed craft. MMSI: 367192940.

Date/timePositionNaut miles runAvg speedWind from/ knotsBaromVisibWave heightAir tempDewpointWater temp
2014-Nov-20 02:32N 33°45' W 118°16'1918.2
2014-Nov-20 01:31N 33°26' W 118°18'9 7.9
2014-Nov-20 00:25N 33°27' W 118°28'1113.0
2014-Nov-19 23:34N 33°36' W 118°21'10 9.5
2014-Nov-19 22:33N 33°45' W 118°16'0 0.0
2014-Nov-19 21:33N 33°45' W 118°16'1 0.9
2014-Nov-19 20:33N 33°44' W 118°16'2311.3
2014-Nov-19 18:29N 33°21' W 118°19'1717.9
2014-Nov-19 17:34N 33°37' W 118°16'8 7.9
2014-Nov-19 16:33N 33°45' W 118°16'0 0.0
2014-Nov-19 15:33N 33°45' W 118°16'0 0.0
2014-Nov-19 14:25N 33°45' W 118°16'0 0.0
2014-Nov-19 13:33N 33°45' W 118°16'  
2014-Nov-17 01:16N 33°40' W 118°15'4 2.3
2014-Nov-16 23:30N 33°37' W 118°19'4 1.2
2014-Nov-16 20:29N 33°34' W 118°17'13 6.9
2014-Nov-16 18:33N 33°21' W 118°19'2416.2
2014-Nov-16 17:05N 33°45' W 118°17'0 0.7
2014-Nov-16 16:33N 33°45' W 118°16'0 0.0
2014-Nov-15 05:27N 33°45' W 118°16'0 0.0
2014-Nov-15 04:24N 33°45' W 118°16'2411.9
2014-Nov-15 02:22N 33°21' W 118°19'2312.2
2014-Nov-15 00:31N 33°44' W 118°16'1 1.3
2014-Nov-14 23:33N 33°45' W 118°16'0 0.0
2014-Nov-14 22:33N 33°45' W 118°16'0 0.0
2014-Nov-14 21:33N 33°45' W 118°16'24 7.9
2014-Nov-14 18:33N 33°21' W 118°19'2217.7
2014-Nov-14 17:19N 33°43' W 118°15'2 3.3
2014-Nov-14 16:33N 33°45' W 118°16'0 0.0
2014-Nov-14 15:30N 33°45' W 118°16'0 0.0
2014-Nov-14 14:33N 33°45' W 118°16'0 0.0
2014-Nov-13 03:33N 33°45' W 118°16'0 0.0
2014-Nov-13 02:33N 33°45' W 118°16'2 0.5
2014-Nov-12 23:09N 33°43' W 118°16'2 3.0
2014-Nov-12 22:33N 33°45' W 118°16'0 0.0
2014-Nov-12 21:33N 33°45' W 118°16'24 7.0
2014-Nov-12 18:07N 33°21' W 118°19'2323.5
2014-Nov-12 17:09N 33°44' W 118°16'1 2.0
2014-Nov-12 16:33N 33°45' W 118°16'0 0.0
2014-Nov-12 15:33N 33°45' W 118°16'0 0.0
2014-Nov-12 14:33N 33°45' W 118°16'0 0.0
2014-Nov-12 13:34N 33°45' W 118°16'0 0.0
2014-Nov-11 03:24N 33°45' W 118°16'0 0.0
2014-Nov-11 02:33N 33°45' W 118°16'0 0.0
2014-Nov-10 22:33N 33°45' W 118°16'0 0.0
2014-Nov-10 21:33N 33°45' W 118°16'0 0.3
2014-Nov-10 20:32N 33°45' W 118°17'2410.1
2014-Nov-10 18:11N 33°21' W 118°19'2414.9
2014-Nov-10 16:34N 33°45' W 118°16'  

Dump ship's entire track history